sensor_id;sensor_type;location;lat;lon;timestamp;temperature;humidity
69595;DHT22;56800;52.142;5.364;2024-01-10T00:00:57;-2.80;62.20
69595;DHT22;56800;52.142;5.364;2024-01-10T00:03:24;-2.90;62.20
69595;DHT22;56800;52.142;5.364;2024-01-10T00:05:51;-2.80;62.30
69595;DHT22;56800;52.142;5.364;2024-01-10T00:08:17;-2.90;62.40
69595;DHT22;56800;52.142;5.364;2024-01-10T00:10:44;-2.90;62.60
69595;DHT22;56800;52.142;5.364;2024-01-10T00:13:11;-2.90;62.60
69595;DHT22;56800;52.142;5.364;2024-01-10T00:15:38;-2.80;62.70
69595;DHT22;56800;52.142;5.364;2024-01-10T00:18:04;-2.90;62.70
69595;DHT22;56800;52.142;5.364;2024-01-10T00:20:31;-2.90;62.80
69595;DHT22;56800;52.142;5.364;2024-01-10T00:22:58;-2.90;62.90
69595;DHT22;56800;52.142;5.364;2024-01-10T00:25:25;-2.90;62.90
69595;DHT22;56800;52.142;5.364;2024-01-10T00:27:52;-2.90;63.00
69595;DHT22;56800;52.142;5.364;2024-01-10T00:30:19;-2.90;63.10
69595;DHT22;56800;52.142;5.364;2024-01-10T00:32:45;-3.00;63.10
69595;DHT22;56800;52.142;5.364;2024-01-10T00:35:12;-3.00;63.30
69595;DHT22;56800;52.142;5.364;2024-01-10T00:37:39;-3.00;63.30
69595;DHT22;56800;52.142;5.364;2024-01-10T00:40:06;-3.00;63.40
69595;DHT22;56800;52.142;5.364;2024-01-10T00:42:38;-3.00;63.50
69595;DHT22;56800;52.142;5.364;2024-01-10T00:45:05;-3.00;63.50
69595;DHT22;56800;52.142;5.364;2024-01-10T00:47:32;-3.00;63.70
69595;DHT22;56800;52.142;5.364;2024-01-10T00:49:58;-3.10;63.70
69595;DHT22;56800;52.142;5.364;2024-01-10T00:52:26;-3.10;63.80
69595;DHT22;56800;52.142;5.364;2024-01-10T00:54:55;-3.10;63.80
69595;DHT22;56800;52.142;5.364;2024-01-10T00:57:22;-3.10;63.80
69595;DHT22;56800;52.142;5.364;2024-01-10T00:59:50;-3.10;63.80
69595;DHT22;56800;52.142;5.364;2024-01-10T01:02:17;-3.10;63.80
69595;DHT22;56800;52.142;5.364;2024-01-10T01:05:04;-3.20;64.00
69595;DHT22;56800;52.142;5.364;2024-01-10T01:07:52;-3.10;64.20
69595;DHT22;56800;52.142;5.364;2024-01-10T01:10:24;-3.10;64.30
69595;DHT22;56800;52.142;5.364;2024-01-10T01:12:56;-3.10;64.40
69595;DHT22;56800;52.142;5.364;2024-01-10T01:15:30;-3.20;64.40
69595;DHT22;56800;52.142;5.364;2024-01-10T01:17:57;-3.20;64.40
69595;DHT22;56800;52.142;5.364;2024-01-10T01:20:24;-3.20;64.50
69595;DHT22;56800;52.142;5.364;2024-01-10T01:22:52;-3.20;64.50
69595;DHT22;56800;52.142;5.364;2024-01-10T01:25:19;-3.20;64.60
69595;DHT22;56800;52.142;5.364;2024-01-10T01:27:46;-3.20;64.60
69595;DHT22;56800;52.142;5.364;2024-01-10T01:30:13;-3.30;64.50
69595;DHT22;56800;52.142;5.364;2024-01-10T01:32:40;-3.30;64.50
69595;DHT22;56800;52.142;5.364;2024-01-10T01:35:07;-3.30;64.60
69595;DHT22;56800;52.142;5.364;2024-01-10T01:37:33;-3.30;64.70
69595;DHT22;56800;52.142;5.364;2024-01-10T01:40:00;-3.30;64.70
69595;DHT22;56800;52.142;5.364;2024-01-10T01:42:27;-3.40;64.80
69595;DHT22;56800;52.142;5.364;2024-01-10T01:44:54;-3.40;64.80
69595;DHT22;56800;52.142;5.364;2024-01-10T01:47:21;-3.40;64.90
69595;DHT22;56800;52.142;5.364;2024-01-10T01:49:49;-3.40;65.80
69595;DHT22;56800;52.142;5.364;2024-01-10T01:52:20;-3.40;65.00
69595;DHT22;56800;52.142;5.364;2024-01-10T01:54:50;-3.50;65.10
69595;DHT22;56800;52.142;5.364;2024-01-10T01:57:16;-3.50;65.20
69595;DHT22;56800;52.142;5.364;2024-01-10T01:59:43;-3.50;65.20
69595;DHT22;56800;52.142;5.364;2024-01-10T02:02:11;-3.50;65.30
69595;DHT22;56800;52.142;5.364;2024-01-10T02:04:39;-3.60;65.30
69595;DHT22;56800;52.142;5.364;2024-01-10T02:07:06;-3.60;65.40
69595;DHT22;56800;52.142;5.364;2024-01-10T02:09:33;-3.60;65.50
69595;DHT22;56800;52.142;5.364;2024-01-10T02:12:00;-3.60;65.60
69595;DHT22;56800;52.142;5.364;2024-01-10T02:14:26;-3.60;65.70
69595;DHT22;56800;52.142;5.364;2024-01-10T02:16:54;-3.60;65.80
69595;DHT22;56800;52.142;5.364;2024-01-10T02:19:22;-3.60;65.90
69595;DHT22;56800;52.142;5.364;2024-01-10T02:21:49;-3.70;66.00
69595;DHT22;56800;52.142;5.364;2024-01-10T02:27:22;-3.70;66.10
69595;DHT22;56800;52.142;5.364;2024-01-10T02:29:49;-3.70;66.20
69595;DHT22;56800;52.142;5.364;2024-01-10T02:32:15;-3.70;66.30
69595;DHT22;56800;52.142;5.364;2024-01-10T02:34:42;-3.70;66.30
69595;DHT22;56800;52.142;5.364;2024-01-10T02:37:09;-3.70;67.20
69595;DHT22;56800;52.142;5.364;2024-01-10T02:39:36;-3.70;66.50
69595;DHT22;56800;52.142;5.364;2024-01-10T02:42:02;-3.70;66.60
69595;DHT22;56800;52.142;5.364;2024-01-10T02:44:29;-3.70;66.60
69595;DHT22;56800;52.142;5.364;2024-01-10T02:46:56;-3.70;66.70
69595;DHT22;56800;52.142;5.364;2024-01-10T02:49:23;-3.70;66.70
69595;DHT22;56800;52.142;5.364;2024-01-10T02:51:49;-3.70;66.70
69595;DHT22;56800;52.142;5.364;2024-01-10T02:54:16;-3.70;66.70
69595;DHT22;56800;52.142;5.364;2024-01-10T02:56:43;-3.70;66.70
69595;DHT22;56800;52.142;5.364;2024-01-10T02:59:09;-3.70;66.80
69595;DHT22;56800;52.142;5.364;2024-01-10T03:01:36;-3.70;66.80
69595;DHT22;56800;52.142;5.364;2024-01-10T03:04:03;-3.70;66.90
69595;DHT22;56800;52.142;5.364;2024-01-10T03:06:30;-3.70;66.90
69595;DHT22;56800;52.142;5.364;2024-01-10T03:08:57;-3.70;66.90
69595;DHT22;56800;52.142;5.364;2024-01-10T03:11:23;-3.70;67.00
69595;DHT22;56800;52.142;5.364;2024-01-10T03:14:00;-3.70;67.00
69595;DHT22;56800;52.142;5.364;2024-01-10T03:16:27;-3.70;67.10
69595;DHT22;56800;52.142;5.364;2024-01-10T03:18:54;-3.70;67.10
69595;DHT22;56800;52.142;5.364;2024-01-10T03:21:20;-3.70;67.10
69595;DHT22;56800;52.142;5.364;2024-01-10T03:23:52;-3.70;67.20
69595;DHT22;56800;52.142;5.364;2024-01-10T03:26:18;-3.70;67.20
69595;DHT22;56800;52.142;5.364;2024-01-10T03:28:45;-3.70;67.30
69595;DHT22;56800;52.142;5.364;2024-01-10T03:31:12;-3.70;67.20
69595;DHT22;56800;52.142;5.364;2024-01-10T03:33:39;-3.70;67.30
69595;DHT22;56800;52.142;5.364;2024-01-10T03:36:08;-3.70;67.40
69595;DHT22;56800;52.142;5.364;2024-01-10T03:38:35;-3.70;67.40
69595;DHT22;56800;52.142;5.364;2024-01-10T03:41:02;-3.70;67.40
69595;DHT22;56800;52.142;5.364;2024-01-10T03:43:29;-3.70;67.40
69595;DHT22;56800;52.142;5.364;2024-01-10T03:45:55;-3.70;67.40
69595;DHT22;56800;52.142;5.364;2024-01-10T03:48:22;-3.70;67.50
69595;DHT22;56800;52.142;5.364;2024-01-10T03:50:49;-3.70;67.50
69595;DHT22;56800;52.142;5.364;2024-01-10T03:53:16;-3.80;68.30
69595;DHT22;56800;52.142;5.364;2024-01-10T03:55:43;-3.70;67.60
69595;DHT22;56800;52.142;5.364;2024-01-10T03:58:10;-3.70;67.60
69595;DHT22;56800;52.142;5.364;2024-01-10T04:00:36;-3.80;67.50
69595;DHT22;56800;52.142;5.364;2024-01-10T04:03:03;-3.70;67.60
69595;DHT22;56800;52.142;5.364;2024-01-10T04:05:30;-3.80;67.60
69595;DHT22;56800;52.142;5.364;2024-01-10T04:07:57;-3.70;67.70
69595;DHT22;56800;52.142;5.364;2024-01-10T04:10:24;-3.80;67.70
69595;DHT22;56800;52.142;5.364;2024-01-10T04:12:51;-3.80;67.70
69595;DHT22;56800;52.142;5.364;2024-01-10T04:15:19;-3.70;67.70
69595;DHT22;56800;52.142;5.364;2024-01-10T04:17:45;-3.80;67.70
69595;DHT22;56800;52.142;5.364;2024-01-10T04:20:12;-3.80;67.70
69595;DHT22;56800;52.142;5.364;2024-01-10T04:22:39;-3.80;67.70
69595;DHT22;56800;52.142;5.364;2024-01-10T04:25:07;-3.80;67.70
69595;DHT22;56800;52.142;5.364;2024-01-10T04:27:34;-3.80;67.80
69595;DHT22;56800;52.142;5.364;2024-01-10T04:30:01;-3.80;67.90
69595;DHT22;56800;52.142;5.364;2024-01-10T04:32:27;-3.80;67.90
69595;DHT22;56800;52.142;5.364;2024-01-10T04:34:54;-3.80;67.90
69595;DHT22;56800;52.142;5.364;2024-01-10T04:37:21;-3.80;68.00
69595;DHT22;56800;52.142;5.364;2024-01-10T04:39:48;-3.80;68.10
69595;DHT22;56800;52.142;5.364;2024-01-10T04:42:14;-3.80;68.00
69595;DHT22;56800;52.142;5.364;2024-01-10T04:44:52;-3.90;68.00
69595;DHT22;56800;52.142;5.364;2024-01-10T04:47:19;-3.80;68.00
69595;DHT22;56800;52.142;5.364;2024-01-10T04:49:46;-3.90;67.90
69595;DHT22;56800;52.142;5.364;2024-01-10T04:52:13;-3.90;67.90
69595;DHT22;56800;52.142;5.364;2024-01-10T04:54:40;-3.90;67.90
69595;DHT22;56800;52.142;5.364;2024-01-10T04:57:07;-3.90;68.00
69595;DHT22;56800;52.142;5.364;2024-01-10T04:59:34;-3.90;68.10
69595;DHT22;56800;52.142;5.364;2024-01-10T05:02:00;-3.90;68.10
69595;DHT22;56800;52.142;5.364;2024-01-10T05:04:27;-3.90;68.10
69595;DHT22;56800;52.142;5.364;2024-01-10T05:06:54;-3.90;68.10
69595;DHT22;56800;52.142;5.364;2024-01-10T05:09:21;-3.90;68.20
69595;DHT22;56800;52.142;5.364;2024-01-10T05:11:47;-3.90;68.20
69595;DHT22;56800;52.142;5.364;2024-01-10T05:14:17;-3.90;68.20
69595;DHT22;56800;52.142;5.364;2024-01-10T05:16:46;-3.90;68.20
69595;DHT22;56800;52.142;5.364;2024-01-10T05:19:14;-3.90;68.20
69595;DHT22;56800;52.142;5.364;2024-01-10T05:21:41;-3.90;68.30
69595;DHT22;56800;52.142;5.364;2024-01-10T05:24:08;-3.90;68.20
69595;DHT22;56800;52.142;5.364;2024-01-10T05:26:35;-3.90;68.20
69595;DHT22;56800;52.142;5.364;2024-01-10T05:29:02;-3.90;68.20
69595;DHT22;56800;52.142;5.364;2024-01-10T05:31:36;-3.80;68.20
69595;DHT22;56800;52.142;5.364;2024-01-10T05:34:05;-3.80;68.20
69595;DHT22;56800;52.142;5.364;2024-01-10T05:36:32;-3.80;68.20
69595;DHT22;56800;52.142;5.364;2024-01-10T05:39:00;-3.80;68.30
69595;DHT22;56800;52.142;5.364;2024-01-10T05:41:27;-3.80;68.30
69595;DHT22;56800;52.142;5.364;2024-01-10T05:43:53;-3.80;68.20
69595;DHT22;56800;52.142;5.364;2024-01-10T05:46:20;-3.80;68.20
69595;DHT22;56800;52.142;5.364;2024-01-10T05:48:47;-3.80;68.30
69595;DHT22;56800;52.142;5.364;2024-01-10T05:51:15;-3.80;68.20
69595;DHT22;56800;52.142;5.364;2024-01-10T05:53:42;-3.80;68.30
69595;DHT22;56800;52.142;5.364;2024-01-10T05:56:09;-3.80;68.30
69595;DHT22;56800;52.142;5.364;2024-01-10T05:58:35;-3.80;68.20
69595;DHT22;56800;52.142;5.364;2024-01-10T06:01:02;-3.80;68.30
69595;DHT22;56800;52.142;5.364;2024-01-10T06:03:30;-3.80;68.20
69595;DHT22;56800;52.142;5.364;2024-01-10T06:05:56;-3.80;68.20
69595;DHT22;56800;52.142;5.364;2024-01-10T06:08:23;-3.80;68.30
69595;DHT22;56800;52.142;5.364;2024-01-10T06:10:52;-3.80;68.30
69595;DHT22;56800;52.142;5.364;2024-01-10T06:13:19;-3.80;68.30
69595;DHT22;56800;52.142;5.364;2024-01-10T06:15:46;-3.80;68.30
69595;DHT22;56800;52.142;5.364;2024-01-10T06:18:12;-3.90;68.30
69595;DHT22;56800;52.142;5.364;2024-01-10T06:20:39;-3.90;68.20
69595;DHT22;56800;52.142;5.364;2024-01-10T06:23:06;-3.90;69.00
69595;DHT22;56800;52.142;5.364;2024-01-10T06:25:33;-3.90;69.00
69595;DHT22;56800;52.142;5.364;2024-01-10T06:27:59;-3.90;68.30
69595;DHT22;56800;52.142;5.364;2024-01-10T06:30:26;-3.90;68.30
69595;DHT22;56800;52.142;5.364;2024-01-10T06:32:53;-3.90;68.40
69595;DHT22;56800;52.142;5.364;2024-01-10T06:35:20;-4.00;68.40
69595;DHT22;56800;52.142;5.364;2024-01-10T06:37:46;-4.00;68.40
69595;DHT22;56800;52.142;5.364;2024-01-10T06:40:13;-4.00;68.40
69595;DHT22;56800;52.142;5.364;2024-01-10T06:42:40;-4.00;68.50
69595;DHT22;56800;52.142;5.364;2024-01-10T06:45:07;-4.00;68.50
69595;DHT22;56800;52.142;5.364;2024-01-10T06:47:35;-4.00;68.50
69595;DHT22;56800;52.142;5.364;2024-01-10T06:50:02;-4.00;68.50
69595;DHT22;56800;52.142;5.364;2024-01-10T06:52:29;-4.00;68.60
69595;DHT22;56800;52.142;5.364;2024-01-10T06:54:56;-4.00;68.60
69595;DHT22;56800;52.142;5.364;2024-01-10T06:57:23;-4.00;68.60
69595;DHT22;56800;52.142;5.364;2024-01-10T06:59:50;-4.00;68.60
69595;DHT22;56800;52.142;5.364;2024-01-10T07:02:17;-4.00;68.60
69595;DHT22;56800;52.142;5.364;2024-01-10T07:04:43;-4.10;68.60
69595;DHT22;56800;52.142;5.364;2024-01-10T07:07:14;-4.00;69.40
69595;DHT22;56800;52.142;5.364;2024-01-10T07:09:41;-4.10;68.60
69595;DHT22;56800;52.142;5.364;2024-01-10T07:12:08;-4.10;68.70
69595;DHT22;56800;52.142;5.364;2024-01-10T07:14:34;-4.10;68.60
69595;DHT22;56800;52.142;5.364;2024-01-10T07:17:01;-4.10;68.60
69595;DHT22;56800;52.142;5.364;2024-01-10T07:19:28;-4.10;68.60
69595;DHT22;56800;52.142;5.364;2024-01-10T07:21:55;-4.10;68.50
69595;DHT22;56800;52.142;5.364;2024-01-10T07:24:22;-4.10;68.50
69595;DHT22;56800;52.142;5.364;2024-01-10T07:26:49;-4.10;68.80
69595;DHT22;56800;52.142;5.364;2024-01-10T07:29:16;-4.10;68.50
69595;DHT22;56800;52.142;5.364;2024-01-10T07:31:42;-4.10;68.50
69595;DHT22;56800;52.142;5.364;2024-01-10T07:34:09;-4.10;68.50
69595;DHT22;56800;52.142;5.364;2024-01-10T07:36:43;-4.10;69.20
69595;DHT22;56800;52.142;5.364;2024-01-10T07:39:10;-4.10;68.40
69595;DHT22;56800;52.142;5.364;2024-01-10T07:41:37;-4.10;68.40
69595;DHT22;56800;52.142;5.364;2024-01-10T07:44:03;-4.10;68.40
69595;DHT22;56800;52.142;5.364;2024-01-10T07:46:30;-4.10;68.40
69595;DHT22;56800;52.142;5.364;2024-01-10T07:48:57;-4.10;68.30
69595;DHT22;56800;52.142;5.364;2024-01-10T07:51:24;-4.00;68.20
69595;DHT22;56800;52.142;5.364;2024-01-10T07:53:50;-4.00;68.10
69595;DHT22;56800;52.142;5.364;2024-01-10T07:56:17;-4.00;68.10
69595;DHT22;56800;52.142;5.364;2024-01-10T07:58:46;-4.00;68.10
69595;DHT22;56800;52.142;5.364;2024-01-10T08:01:14;-4.00;67.90
69595;DHT22;56800;52.142;5.364;2024-01-10T08:03:43;-4.00;67.90
69595;DHT22;56800;52.142;5.364;2024-01-10T08:06:09;-4.00;67.90
69595;DHT22;56800;52.142;5.364;2024-01-10T08:08:52;-4.00;67.80
69595;DHT22;56800;52.142;5.364;2024-01-10T08:11:19;-3.90;67.90
69595;DHT22;56800;52.142;5.364;2024-01-10T08:13:45;-3.90;67.80
69595;DHT22;56800;52.142;5.364;2024-01-10T08:16:12;-3.90;67.80
69595;DHT22;56800;52.142;5.364;2024-01-10T08:18:40;-3.90;67.70
69595;DHT22;56800;52.142;5.364;2024-01-10T08:21:07;-3.90;67.50
69595;DHT22;56800;52.142;5.364;2024-01-10T08:23:34;-3.90;67.50
69595;DHT22;56800;52.142;5.364;2024-01-10T08:26:01;-3.90;67.60
69595;DHT22;56800;52.142;5.364;2024-01-10T08:28:27;-3.80;67.60
69595;DHT22;56800;52.142;5.364;2024-01-10T08:30:54;-3.80;67.50
69595;DHT22;56800;52.142;5.364;2024-01-10T08:33:30;-3.80;67.60
69595;DHT22;56800;52.142;5.364;2024-01-10T08:35:57;-3.70;67.60
69595;DHT22;56800;52.142;5.364;2024-01-10T08:38:25;-3.70;67.70
69595;DHT22;56800;52.142;5.364;2024-01-10T08:40:52;-3.70;67.60
69595;DHT22;56800;52.142;5.364;2024-01-10T08:43:19;-3.60;67.50
69595;DHT22;56800;52.142;5.364;2024-01-10T08:45:46;-3.50;67.60
69595;DHT22;56800;52.142;5.364;2024-01-10T08:48:13;-3.50;67.40
69595;DHT22;56800;52.142;5.364;2024-01-10T08:50:40;-3.50;67.20
69595;DHT22;56800;52.142;5.364;2024-01-10T08:53:08;-3.40;67.30
69595;DHT22;56800;52.142;5.364;2024-01-10T08:55:34;-3.40;67.50
69595;DHT22;56800;52.142;5.364;2024-01-10T08:58:03;-3.40;67.10
69595;DHT22;56800;52.142;5.364;2024-01-10T09:00:30;-3.40;67.10
69595;DHT22;56800;52.142;5.364;2024-01-10T09:02:58;-3.40;67.20
69595;DHT22;56800;52.142;5.364;2024-01-10T09:05:25;-3.30;67.20
69595;DHT22;56800;52.142;5.364;2024-01-10T09:07:51;-3.30;67.20
69595;DHT22;56800;52.142;5.364;2024-01-10T09:10:20;-3.20;67.40
69595;DHT22;56800;52.142;5.364;2024-01-10T09:12:49;-3.10;67.40
69595;DHT22;56800;52.142;5.364;2024-01-10T09:15:16;-3.10;67.10
69595;DHT22;56800;52.142;5.364;2024-01-10T09:17:43;-3.00;67.10
69595;DHT22;56800;52.142;5.364;2024-01-10T09:20:11;-3.00;66.90
69595;DHT22;56800;52.142;5.364;2024-01-10T09:22:39;-2.90;66.80
69595;DHT22;56800;52.142;5.364;2024-01-10T09:25:06;-2.90;66.70
69595;DHT22;56800;52.142;5.364;2024-01-10T09:27:33;-2.90;66.70
69595;DHT22;56800;52.142;5.364;2024-01-10T09:30:03;-2.80;67.00
69595;DHT22;56800;52.142;5.364;2024-01-10T09:32:30;-2.60;66.90
69595;DHT22;56800;52.142;5.364;2024-01-10T09:34:57;-2.60;66.40
69595;DHT22;56800;52.142;5.364;2024-01-10T09:37:24;-2.50;66.20
69595;DHT22;56800;52.142;5.364;2024-01-10T09:39:51;-2.50;65.90
69595;DHT22;56800;52.142;5.364;2024-01-10T09:42:19;-2.50;65.60
69595;DHT22;56800;52.142;5.364;2024-01-10T09:44:52;-2.40;65.60
69595;DHT22;56800;52.142;5.364;2024-01-10T09:47:20;-2.40;65.90
69595;DHT22;56800;52.142;5.364;2024-01-10T09:49:47;-2.00;67.20
69595;DHT22;56800;52.142;5.364;2024-01-10T09:52:24;-1.40;67.60
69595;DHT22;56800;52.142;5.364;2024-01-10T09:54:56;-0.90;66.10
69595;DHT22;56800;52.142;5.364;2024-01-10T09:57:24;-0.50;65.10
69595;DHT22;56800;52.142;5.364;2024-01-10T09:59:52;-0.10;64.70
69595;DHT22;56800;52.142;5.364;2024-01-10T10:02:20;0.20;64.00
69595;DHT22;56800;52.142;5.364;2024-01-10T10:04:56;0.70;63.10
69595;DHT22;56800;52.142;5.364;2024-01-10T10:07:26;1.10;62.60
69595;DHT22;56800;52.142;5.364;2024-01-10T10:09:53;1.30;61.40
69595;DHT22;56800;52.142;5.364;2024-01-10T10:12:41;1.80;61.60
69595;DHT22;56800;52.142;5.364;2024-01-10T10:15:13;2.30;61.10
69595;DHT22;56800;52.142;5.364;2024-01-10T10:17:41;2.60;60.00
69595;DHT22;56800;52.142;5.364;2024-01-10T10:20:14;2.60;59.00
69595;DHT22;56800;52.142;5.364;2024-01-10T10:22:59;2.70;58.70
69595;DHT22;56800;52.142;5.364;2024-01-10T10:25:37;2.70;58.50
69595;DHT22;56800;52.142;5.364;2024-01-10T10:28:08;2.80;58.50
69595;DHT22;56800;52.142;5.364;2024-01-10T10:30:46;2.80;57.80
69595;DHT22;56800;52.142;5.364;2024-01-10T10:33:13;2.80;56.80
69595;DHT22;56800;52.142;5.364;2024-01-10T10:35:40;2.70;56.10
69595;DHT22;56800;52.142;5.364;2024-01-10T10:38:12;2.60;55.90
69595;DHT22;56800;52.142;5.364;2024-01-10T10:40:39;2.50;55.50
69595;DHT22;56800;52.142;5.364;2024-01-10T10:43:12;2.50;55.20
69595;DHT22;56800;52.142;5.364;2024-01-10T10:45:44;2.50;55.70
69595;DHT22;56800;52.142;5.364;2024-01-10T10:48:16;2.50;55.70
69595;DHT22;56800;52.142;5.364;2024-01-10T10:50:53;2.50;55.00
69595;DHT22;56800;52.142;5.364;2024-01-10T10:53:22;2.40;54.80
69595;DHT22;56800;52.142;5.364;2024-01-10T10:55:52;2.30;54.40
69595;DHT22;56800;52.142;5.364;2024-01-10T10:58:19;2.30;54.40
69595;DHT22;56800;52.142;5.364;2024-01-10T11:00:50;2.30;54.60
69595;DHT22;56800;52.142;5.364;2024-01-10T11:03:18;2.30;53.90
69595;DHT22;56800;52.142;5.364;2024-01-10T11:05:46;2.10;53.70
69595;DHT22;56800;52.142;5.364;2024-01-10T11:08:18;1.90;53.50
69595;DHT22;56800;52.142;5.364;2024-01-10T11:10:46;1.80;53.80
69595;DHT22;56800;52.142;5.364;2024-01-10T11:13:37;1.70;53.90
69595;DHT22;56800;52.142;5.364;2024-01-10T11:24:53;2.10;53.30
69595;DHT22;56800;52.142;5.364;2024-01-10T11:27:20;2.10;53.00
69595;DHT22;56800;52.142;5.364;2024-01-10T11:29:47;2.00;53.20
69595;DHT22;56800;52.142;5.364;2024-01-10T11:32:16;1.80;53.40
69595;DHT22;56800;52.142;5.364;2024-01-10T11:37:21;1.80;54.50
69595;DHT22;56800;52.142;5.364;2024-01-10T11:39:47;2.10;55.70
69595;DHT22;56800;52.142;5.364;2024-01-10T11:42:29;2.60;55.30
69595;DHT22;56800;52.142;5.364;2024-01-10T11:45:07;3.10;55.10
69595;DHT22;56800;52.142;5.364;2024-01-10T11:47:38;3.50;53.80
69595;DHT22;56800;52.142;5.364;2024-01-10T11:50:07;3.80;53.20
69595;DHT22;56800;52.142;5.364;2024-01-10T11:52:36;4.10;53.50
69595;DHT22;56800;52.142;5.364;2024-01-10T11:55:03;4.50;53.10
69595;DHT22;56800;52.142;5.364;2024-01-10T11:57:33;4.90;52.60
69595;DHT22;56800;52.142;5.364;2024-01-10T12:00:01;5.30;51.90
69595;DHT22;56800;52.142;5.364;2024-01-10T12:02:31;5.50;50.80
69595;DHT22;56800;52.142;5.364;2024-01-10T12:04:59;5.70;50.20
69595;DHT22;56800;52.142;5.364;2024-01-10T12:07:26;5.90;50.20
69595;DHT22;56800;52.142;5.364;2024-01-10T12:09:54;6.10;49.60
69595;DHT22;56800;52.142;5.364;2024-01-10T12:12:21;6.40;49.00
69595;DHT22;56800;52.142;5.364;2024-01-10T12:14:50;6.60;47.60
69595;DHT22;56800;52.142;5.364;2024-01-10T12:17:17;6.60;47.10
69595;DHT22;56800;52.142;5.364;2024-01-10T12:19:45;6.70;47.30
69595;DHT22;56800;52.142;5.364;2024-01-10T12:22:16;6.80;47.10
69595;DHT22;56800;52.142;5.364;2024-01-10T12:24:47;7.00;46.70
69595;DHT22;56800;52.142;5.364;2024-01-10T12:27:18;7.10;46.30
69595;DHT22;56800;52.142;5.364;2024-01-10T12:29:52;7.20;46.10
69595;DHT22;56800;52.142;5.364;2024-01-10T12:32:21;7.40;45.80
69595;DHT22;56800;52.142;5.364;2024-01-10T12:35:00;7.40;44.90
69595;DHT22;56800;52.142;5.364;2024-01-10T12:37:27;7.30;44.20
69595;DHT22;56800;52.142;5.364;2024-01-10T12:39:54;7.10;43.30
69595;DHT22;56800;52.142;5.364;2024-01-10T12:42:23;6.80;42.90
69595;DHT22;56800;52.142;5.364;2024-01-10T12:44:50;6.50;43.30
69595;DHT22;56800;52.142;5.364;2024-01-10T12:47:21;6.20;43.30
69595;DHT22;56800;52.142;5.364;2024-01-10T12:49:48;5.90;42.90
69595;DHT22;56800;52.142;5.364;2024-01-10T12:52:17;5.60;43.30
69595;DHT22;56800;52.142;5.364;2024-01-10T12:54:48;5.30;43.60
69595;DHT22;56800;52.142;5.364;2024-01-10T12:57:15;5.10;43.40
69595;DHT22;56800;52.142;5.364;2024-01-10T12:59:43;4.90;43.70
69595;DHT22;56800;52.142;5.364;2024-01-10T13:02:11;4.70;43.90
69595;DHT22;56800;52.142;5.364;2024-01-10T13:04:38;4.60;44.20
69595;DHT22;56800;52.142;5.364;2024-01-10T13:07:08;4.40;44.40
69595;DHT22;56800;52.142;5.364;2024-01-10T13:09:35;4.30;44.30
69595;DHT22;56800;52.142;5.364;2024-01-10T13:12:04;4.10;44.50
69595;DHT22;56800;52.142;5.364;2024-01-10T13:14:30;4.00;45.30
69595;DHT22;56800;52.142;5.364;2024-01-10T13:16:58;3.90;45.50
69595;DHT22;56800;52.142;5.364;2024-01-10T13:19:26;3.80;45.50
69595;DHT22;56800;52.142;5.364;2024-01-10T13:21:53;3.70;45.40
69595;DHT22;56800;52.142;5.364;2024-01-10T13:24:20;3.60;45.80
69595;DHT22;56800;52.142;5.364;2024-01-10T13:26:47;3.60;46.50
69595;DHT22;56800;52.142;5.364;2024-01-10T13:29:15;3.50;46.70
69595;DHT22;56800;52.142;5.364;2024-01-10T13:31:41;3.40;46.80
69595;DHT22;56800;52.142;5.364;2024-01-10T13:34:08;3.30;46.80
69595;DHT22;56800;52.142;5.364;2024-01-10T13:36:38;3.20;46.50
69595;DHT22;56800;52.142;5.364;2024-01-10T13:39:06;3.10;46.30
69595;DHT22;56800;52.142;5.364;2024-01-10T13:41:33;3.10;46.50
69595;DHT22;56800;52.142;5.364;2024-01-10T13:44:00;3.00;46.70
69595;DHT22;56800;52.142;5.364;2024-01-10T13:46:27;2.90;46.90
69595;DHT22;56800;52.142;5.364;2024-01-10T13:48:53;2.80;47.00
69595;DHT22;56800;52.142;5.364;2024-01-10T13:51:20;2.70;47.20
69595;DHT22;56800;52.142;5.364;2024-01-10T13:53:47;2.70;47.20
69595;DHT22;56800;52.142;5.364;2024-01-10T13:56:14;2.70;47.30
69595;DHT22;56800;52.142;5.364;2024-01-10T13:58:41;2.60;47.20
69595;DHT22;56800;52.142;5.364;2024-01-10T14:01:07;2.50;46.90
69595;DHT22;56800;52.142;5.364;2024-01-10T14:03:34;2.50;47.20
69595;DHT22;56800;52.142;5.364;2024-01-10T14:06:01;2.50;47.60
69595;DHT22;56800;52.142;5.364;2024-01-10T14:08:28;2.40;47.70
69595;DHT22;56800;52.142;5.364;2024-01-10T14:10:55;2.40;48.10
69595;DHT22;56800;52.142;5.364;2024-01-10T14:13:21;2.40;48.20
69595;DHT22;56800;52.142;5.364;2024-01-10T14:15:49;2.40;48.20
69595;DHT22;56800;52.142;5.364;2024-01-10T14:18:16;2.40;48.30
69595;DHT22;56800;52.142;5.364;2024-01-10T14:20:43;2.30;48.40
69595;DHT22;56800;52.142;5.364;2024-01-10T14:23:10;2.20;48.40
69595;DHT22;56800;52.142;5.364;2024-01-10T14:25:37;2.20;48.70
69595;DHT22;56800;52.142;5.364;2024-01-10T14:28:03;2.20;48.70
69595;DHT22;56800;52.142;5.364;2024-01-10T14:30:30;2.20;49.00
69595;DHT22;56800;52.142;5.364;2024-01-10T14:32:59;2.10;49.20
69595;DHT22;56800;52.142;5.364;2024-01-10T14:35:26;2.10;49.10
69595;DHT22;56800;52.142;5.364;2024-01-10T14:37:53;2.00;49.30
69595;DHT22;56800;52.142;5.364;2024-01-10T14:40:20;1.90;49.70
69595;DHT22;56800;52.142;5.364;2024-01-10T14:42:50;1.90;49.50
69595;DHT22;56800;52.142;5.364;2024-01-10T14:45:17;1.90;49.70
69595;DHT22;56800;52.142;5.364;2024-01-10T14:47:43;1.90;50.10
69595;DHT22;56800;52.142;5.364;2024-01-10T14:50:10;1.80;50.30
69595;DHT22;56800;52.142;5.364;2024-01-10T14:52:38;1.80;50.30
69595;DHT22;56800;52.142;5.364;2024-01-10T14:55:05;1.70;50.40
69595;DHT22;56800;52.142;5.364;2024-01-10T14:57:32;1.70;50.60
69595;DHT22;56800;52.142;5.364;2024-01-10T14:59:59;1.70;50.80
69595;DHT22;56800;52.142;5.364;2024-01-10T15:02:26;1.60;50.90
69595;DHT22;56800;52.142;5.364;2024-01-10T15:04:53;1.50;50.90
69595;DHT22;56800;52.142;5.364;2024-01-10T15:07:20;1.50;51.00
69595;DHT22;56800;52.142;5.364;2024-01-10T15:09:47;1.40;51.20
69595;DHT22;56800;52.142;5.364;2024-01-10T15:12:14;1.40;51.40
69595;DHT22;56800;52.142;5.364;2024-01-10T15:14:41;1.40;51.50
69595;DHT22;56800;52.142;5.364;2024-01-10T15:17:08;1.30;51.50
69595;DHT22;56800;52.142;5.364;2024-01-10T15:19:40;1.30;51.80
69595;DHT22;56800;52.142;5.364;2024-01-10T15:22:07;1.30;51.70
69595;DHT22;56800;52.142;5.364;2024-01-10T15:24:35;1.20;51.60
69595;DHT22;56800;52.142;5.364;2024-01-10T15:27:02;1.20;51.60
69595;DHT22;56800;52.142;5.364;2024-01-10T15:29:33;1.20;51.80
69595;DHT22;56800;52.142;5.364;2024-01-10T15:32:00;1.10;51.90
69595;DHT22;56800;52.142;5.364;2024-01-10T15:34:27;1.10;52.20
69595;DHT22;56800;52.142;5.364;2024-01-10T15:36:54;1.00;52.30
69595;DHT22;56800;52.142;5.364;2024-01-10T15:39:21;1.00;52.50
69595;DHT22;56800;52.142;5.364;2024-01-10T15:41:51;0.90;52.50
69595;DHT22;56800;52.142;5.364;2024-01-10T15:44:22;0.90;52.70
69595;DHT22;56800;52.142;5.364;2024-01-10T15:46:49;0.80;52.90
69595;DHT22;56800;52.142;5.364;2024-01-10T15:49:17;0.80;53.00
69595;DHT22;56800;52.142;5.364;2024-01-10T15:51:44;0.80;53.10
69595;DHT22;56800;52.142;5.364;2024-01-10T15:54:11;0.70;53.10
69595;DHT22;56800;52.142;5.364;2024-01-10T15:56:39;0.70;53.30